createdAt,value
2023-05-15T00:01:01.085Z,79.20
2023-05-15T00:03:29.344Z,79.30
2023-05-15T00:05:57.807Z,79.40
2023-05-15T00:08:27.356Z,80.10
2023-05-15T00:11:01.379Z,79.50
2023-05-15T00:13:31.775Z,79.50
2023-05-15T00:15:59.999Z,79.50
2023-05-15T00:18:28.179Z,79.50
2023-05-15T00:20:56.292Z,79.50
2023-05-15T00:23:24.392Z,79.50
2023-05-15T00:25:53.956Z,79.50
2023-05-15T00:28:22.097Z,79.40
2023-05-15T00:30:50.204Z,79.00
2023-05-15T00:33:18.286Z,78.90
2023-05-15T00:35:46.576Z,79.10
2023-05-15T00:38:14.653Z,79.30
2023-05-15T00:40:44.461Z,79.40
2023-05-15T00:43:15.516Z,79.50
2023-05-15T00:45:44.549Z,79.70
2023-05-15T00:48:13.348Z,79.70
2023-05-15T00:50:42.588Z,80.00
2023-05-15T00:53:10.916Z,80.00
2023-05-15T00:55:40.530Z,79.60
2023-05-15T00:58:11.368Z,79.30
2023-05-15T01:00:43.144Z,79.30
2023-05-15T01:03:11.399Z,79.20
2023-05-15T01:05:39.767Z,79.00
2023-05-15T01:08:20.092Z,78.90
2023-05-15T01:10:49.935Z,79.40
2023-05-15T01:13:20.750Z,78.80
2023-05-15T01:15:50.486Z,78.50
2023-05-15T01:18:18.756Z,78.40
2023-05-15T01:21:02.848Z,78.30
2023-05-15T01:23:46.749Z,78.60
2023-05-15T01:26:39.791Z,78.80
2023-05-15T01:29:15.758Z,79.10
2023-05-15T01:31:49.041Z,79.00
2023-05-15T01:34:18.972Z,79.20
2023-05-15T01:36:50.341Z,79.40
2023-05-15T01:39:23.135Z,79.20
2023-05-15T01:41:55.891Z,79.70
2023-05-15T01:44:29.500Z,79.90
2023-05-15T01:47:01.077Z,80.00
2023-05-15T01:49:31.979Z,79.70
2023-05-15T01:52:04.573Z,79.50
2023-05-15T01:54:33.133Z,79.60
2023-05-15T01:57:02.393Z,79.60
2023-05-15T01:59:33.628Z,79.90
2023-05-15T02:02:03.593Z,80.20
2023-05-15T02:04:32.137Z,80.00
2023-05-15T02:07:02.321Z,80.00
2023-05-15T02:09:30.886Z,80.30
2023-05-15T02:11:59.698Z,80.30
2023-05-15T02:14:29.384Z,80.40
2023-05-15T02:16:58.976Z,80.40
2023-05-15T02:19:27.202Z,80.20
2023-05-15T02:21:55.268Z,79.80
2023-05-15T02:24:23.399Z,79.90
2023-05-15T02:26:57.972Z,80.10
2023-05-15T02:29:38.109Z,80.40
2023-05-15T02:32:16.148Z,80.70
2023-05-15T02:34:53.531Z,80.90
2023-05-15T02:37:29.040Z,80.70
2023-05-15T02:39:59.786Z,80.60
2023-05-15T02:42:29.266Z,80.20
2023-05-15T02:44:58.711Z,80.00
2023-05-15T02:47:28.886Z,79.90
2023-05-15T02:49:57.989Z,79.90
2023-05-15T02:52:26.574Z,79.80
2023-05-15T02:54:54.717Z,79.80
2023-05-15T02:57:22.988Z,79.70
2023-05-15T02:59:51.202Z,79.70
2023-05-15T03:02:19.356Z,79.70
2023-05-15T03:04:48.821Z,79.70
2023-05-15T03:07:16.996Z,79.70
2023-05-15T03:09:45.197Z,79.40
2023-05-15T03:12:13.295Z,79.10
2023-05-15T03:14:41.382Z,79.10
2023-05-15T03:17:09.622Z,79.20
2023-05-15T03:19:37.806Z,79.20
2023-05-15T03:22:07.432Z,79.50
2023-05-15T03:24:37.319Z,80.00
2023-05-15T03:27:06.199Z,79.70
2023-05-15T03:29:34.280Z,79.20
2023-05-15T03:32:02.375Z,79.10
2023-05-15T03:34:30.562Z,79.20
2023-05-15T03:36:58.657Z,79.40
2023-05-15T03:39:28.199Z,79.40
2023-05-15T03:41:56.462Z,79.40
2023-05-15T03:44:24.653Z,79.40
2023-05-15T03:46:52.847Z,79.50
2023-05-15T03:49:20.965Z,79.60
2023-05-15T03:51:49.145Z,79.70
2023-05-15T03:54:17.327Z,79.70
2023-05-15T03:56:46.890Z,79.80
2023-05-15T03:59:14.973Z,80.40
2023-05-15T04:01:59.409Z,80.80
2023-05-15T04:04:31.448Z,81.30
2023-05-15T04:06:59.585Z,81.60
2023-05-15T04:09:27.754Z,81.90
2023-05-15T04:11:57.244Z,82.10
2023-05-15T04:14:25.353Z,82.60
2023-05-15T04:16:53.562Z,82.20
2023-05-15T04:19:21.786Z,82.90
2023-05-15T04:21:49.896Z,82.30
2023-05-15T04:24:17.976Z,82.10
2023-05-15T04:26:46.153Z,81.70
2023-05-15T04:29:15.697Z,81.50
2023-05-15T04:31:44.038Z,81.40
2023-05-15T04:34:12.182Z,81.40
2023-05-15T04:36:42.819Z,81.40
2023-05-15T04:39:11.230Z,81.60
2023-05-15T04:41:39.332Z,81.80
2023-05-15T04:44:08.636Z,81.70
2023-05-15T04:46:38.268Z,82.00
2023-05-15T04:49:06.664Z,82.30
2023-05-15T04:51:35.005Z,82.20
2023-05-15T04:54:03.390Z,82.40
2023-05-15T04:56:31.577Z,82.30
2023-05-15T04:58:59.775Z,82.30
2023-05-15T05:01:27.972Z,82.30
2023-05-15T05:03:57.747Z,82.40
2023-05-15T05:06:26.550Z,82.40
2023-05-15T05:08:55.386Z,82.30
2023-05-15T05:11:23.900Z,82.40
2023-05-15T05:13:52.423Z,82.50
2023-05-15T05:16:20.593Z,82.50
2023-05-15T05:18:48.793Z,82.20
2023-05-15T05:21:18.576Z,82.20
2023-05-15T05:23:47.413Z,82.30
2023-05-15T05:26:15.505Z,82.30
2023-05-15T05:28:43.599Z,82.50
2023-05-15T05:31:11.759Z,82.60
2023-05-15T05:33:40.003Z,82.80
2023-05-15T05:36:08.809Z,83.20
2023-05-15T05:38:38.665Z,83.20
2023-05-15T05:41:06.795Z,83.50
2023-05-15T05:43:34.920Z,83.30
2023-05-15T05:46:03.213Z,83.50
2023-05-15T05:48:31.394Z,83.70
2023-05-15T05:50:59.600Z,84.00
2023-05-15T05:53:27.750Z,84.20
2023-05-15T05:55:57.504Z,84.50
2023-05-15T05:58:26.400Z,84.90
2023-05-15T06:00:55.033Z,84.80
2023-05-15T06:03:24.140Z,84.90
2023-05-15T06:05:52.908Z,84.90
2023-05-15T06:08:21.102Z,84.80
2023-05-15T06:10:49.454Z,84.60
2023-05-15T06:13:19.189Z,84.30
2023-05-15T06:15:48.307Z,84.10
2023-05-15T06:18:16.429Z,83.90
2023-05-15T06:20:44.539Z,83.60
2023-05-15T06:23:12.652Z,83.40
2023-05-15T06:25:40.812Z,83.10
2023-05-15T06:28:08.931Z,82.90
2023-05-15T06:30:38.448Z,82.70
2023-05-15T06:33:06.624Z,82.50
2023-05-15T06:35:34.805Z,82.10
2023-05-15T06:38:03.084Z,81.80
2023-05-15T06:40:31.453Z,81.50
2023-05-15T06:42:59.848Z,81.30
2023-05-15T06:45:28.454Z,81.20
2023-05-15T06:48:01.615Z,81.00
2023-05-15T06:50:29.920Z,81.10
2023-05-15T06:52:58.021Z,81.20
2023-05-15T06:55:26.259Z,80.80
2023-05-15T06:57:54.679Z,81.00
2023-05-15T07:00:23.196Z,81.00
2023-05-15T07:02:51.321Z,80.90
2023-05-15T07:05:21.861Z,80.80
2023-05-15T07:07:50.085Z,80.40
2023-05-15T07:10:18.377Z,80.20
2023-05-15T07:12:46.480Z,80.00
2023-05-15T07:15:14.525Z,80.00
2023-05-15T07:17:42.744Z,79.80
2023-05-15T07:20:11.599Z,79.50
2023-05-15T07:22:51.929Z,79.30
2023-05-15T07:25:23.868Z,79.30
2023-05-15T07:27:52.413Z,79.10
2023-05-15T07:30:20.666Z,78.90
2023-05-15T07:32:48.825Z,78.80
2023-05-15T07:35:17.255Z,78.60
2023-05-15T07:37:47.528Z,78.40
2023-05-15T07:40:16.553Z,78.10
2023-05-15T07:42:45.842Z,77.90
2023-05-15T07:45:14.095Z,78.00
2023-05-15T07:47:43.959Z,77.90
2023-05-15T07:50:12.494Z,77.30
2023-05-15T07:52:40.661Z,77.10
2023-05-15T07:55:10.988Z,76.80
2023-05-15T07:57:39.848Z,76.30
2023-05-15T08:00:13.172Z,76.00
2023-05-15T08:02:41.411Z,75.40
2023-05-15T08:05:10.031Z,76.00
2023-05-15T08:07:38.312Z,75.40
2023-05-15T08:10:07.649Z,75.00
2023-05-15T08:12:37.196Z,74.70
2023-05-15T08:15:06.534Z,74.10
2023-05-15T08:17:34.647Z,74.20
2023-05-15T08:20:02.834Z,73.80
2023-05-15T08:22:31.262Z,73.50
2023-05-15T08:25:00.232Z,73.10
2023-05-15T08:27:28.502Z,72.20
2023-05-15T08:29:57.979Z,71.80
2023-05-15T08:32:26.775Z,70.90
2023-05-15T08:34:55.054Z,70.60
2023-05-15T08:37:23.203Z,70.30
2023-05-15T08:39:51.376Z,69.70
2023-05-15T08:42:25.078Z,69.20
2023-05-15T08:44:53.490Z,67.90
2023-05-15T08:47:23.689Z,68.10
2023-05-15T08:50:00.632Z,67.60
2023-05-15T08:52:29.873Z,66.40
2023-05-15T08:54:59.464Z,66.60
2023-05-15T08:57:28.080Z,66.30
2023-05-15T08:59:57.727Z,66.10
2023-05-15T09:02:27.557Z,65.60
2023-05-15T09:04:55.703Z,65.20
2023-05-15T09:07:24.696Z,65.50
2023-05-15T09:09:53.280Z,65.40
2023-05-15T09:12:23.429Z,64.60
2023-05-15T09:14:51.535Z,64.50
2023-05-15T09:17:19.671Z,64.10
2023-05-15T09:19:49.419Z,62.70
2023-05-15T09:22:23.235Z,62.00
2023-05-15T09:24:53.961Z,62.30
2023-05-15T09:27:22.084Z,61.00
2023-05-15T09:29:51.757Z,60.50
2023-05-15T09:32:20.104Z,59.90
2023-05-15T09:34:49.701Z,59.80
2023-05-15T09:37:30.211Z,59.10
2023-05-15T09:40:10.822Z,58.10
2023-05-15T09:42:39.324Z,55.90
2023-05-15T09:45:17.849Z,57.20
2023-05-15T09:47:47.232Z,55.50
2023-05-15T09:50:23.672Z,55.50
2023-05-15T09:52:52.773Z,53.90
2023-05-15T09:55:22.885Z,55.20
2023-05-15T09:58:08.043Z,55.40
2023-05-15T10:00:48.502Z,54.40
2023-05-15T10:03:19.448Z,55.60
2023-05-15T10:05:49.154Z,54.40
2023-05-15T10:08:26.944Z,53.30
2023-05-15T10:10:55.560Z,53.00
2023-05-15T10:13:24.554Z,53.00
2023-05-15T10:15:53.972Z,53.10
2023-05-15T10:18:25.025Z,53.20
2023-05-15T10:20:54.584Z,52.70
2023-05-15T10:23:24.650Z,51.60
2023-05-15T10:25:59.636Z,51.80
2023-05-15T10:28:29.610Z,49.90
2023-05-15T10:31:02.936Z,48.90
2023-05-15T10:33:31.221Z,49.20
2023-05-15T10:36:01.283Z,50.10
2023-05-15T10:38:31.622Z,50.30
2023-05-15T10:41:15.864Z,50.60
2023-05-15T10:43:45.833Z,50.80
2023-05-15T10:46:16.036Z,51.10
2023-05-15T10:48:44.567Z,51.50
2023-05-15T10:51:19.218Z,51.90
2023-05-15T10:53:47.811Z,52.00
2023-05-15T10:56:17.164Z,52.60
2023-05-15T10:58:49.275Z,52.80
2023-05-15T11:01:28.009Z,52.10
2023-05-15T11:04:10.467Z,51.90
2023-05-15T11:06:41.355Z,51.90
2023-05-15T11:09:36.048Z,52.60
2023-05-15T11:12:05.902Z,52.00
2023-05-15T11:14:36.666Z,52.50
2023-05-15T11:17:06.797Z,52.40
2023-05-15T11:19:40.522Z,52.50
2023-05-15T11:22:21.004Z,52.60
2023-05-15T11:24:53.696Z,52.60
2023-05-15T11:27:23.658Z,53.10
2023-05-15T11:30:13.338Z,53.40
2023-05-15T11:32:43.147Z,52.90
2023-05-15T11:35:12.525Z,53.50
2023-05-15T11:37:46.722Z,53.70
2023-05-15T11:40:16.094Z,53.70
2023-05-15T11:42:59.247Z,53.40
2023-05-15T11:45:27.853Z,53.30
2023-05-15T11:47:56.220Z,53.80
2023-05-15T11:50:25.288Z,53.70
2023-05-15T11:52:55.626Z,53.20
2023-05-15T11:55:24.264Z,52.70
2023-05-15T11:57:52.353Z,53.10
2023-05-15T12:00:20.699Z,53.30
2023-05-15T12:02:49.115Z,53.40
2023-05-15T12:05:17.257Z,52.60
2023-05-15T12:07:46.600Z,52.50
2023-05-15T12:10:16.540Z,51.80
2023-05-15T12:12:46.132Z,51.00
2023-05-15T12:15:15.827Z,50.60
2023-05-15T12:17:46.506Z,50.00
2023-05-15T12:20:19.642Z,49.90
2023-05-15T12:22:47.725Z,50.20
2023-05-15T12:25:17.748Z,50.60
2023-05-15T12:27:46.014Z,50.50
2023-05-15T12:30:15.672Z,50.50
2023-05-15T12:32:44.715Z,50.30
2023-05-15T12:35:13.038Z,50.50
2023-05-15T12:37:43.326Z,50.70
2023-05-15T12:40:12.385Z,49.90
2023-05-15T12:42:45.794Z,49.30
2023-05-15T12:45:15.696Z,49.10
2023-05-15T12:47:44.481Z,48.50
2023-05-15T12:50:16.974Z,47.30
2023-05-15T12:52:52.419Z,46.40
2023-05-15T12:55:24.808Z,45.80
2023-05-15T12:57:54.916Z,45.60
2023-05-15T13:00:25.710Z,45.50
2023-05-15T13:02:56.108Z,45.50
2023-05-15T13:05:24.514Z,44.30
2023-05-15T13:07:53.024Z,44.40
2023-05-15T13:10:24.006Z,44.30
2023-05-15T13:12:54.733Z,44.30
2023-05-15T13:15:31.613Z,45.00
2023-05-15T13:18:04.417Z,44.00
2023-05-15T13:20:36.038Z,44.20
2023-05-15T13:23:04.509Z,43.80
2023-05-15T13:25:32.926Z,43.90
2023-05-15T13:28:04.425Z,43.60
2023-05-15T13:30:34.622Z,43.50
2023-05-15T13:33:04.885Z,43.50
2023-05-15T13:35:32.994Z,43.50
2023-05-15T13:38:01.516Z,44.00
2023-05-15T13:40:31.108Z,44.40
2023-05-15T13:42:59.249Z,44.60
2023-05-15T13:45:28.818Z,44.70
2023-05-15T13:47:57.201Z,44.70
2023-05-15T13:50:25.666Z,45.00
2023-05-15T13:52:54.484Z,45.10
2023-05-15T13:55:23.326Z,45.20
2023-05-15T13:57:52.147Z,45.10
2023-05-15T14:00:21.846Z,45.20
2023-05-15T14:02:51.458Z,45.30
2023-05-15T14:05:19.653Z,45.40
2023-05-15T14:07:47.744Z,45.60
2023-05-15T14:10:15.835Z,45.80
2023-05-15T14:12:44.293Z,46.00
2023-05-15T14:15:13.020Z,45.80
2023-05-15T14:17:41.752Z,45.50
2023-05-15T14:20:13.005Z,45.70
2023-05-15T14:22:42.054Z,45.80
2023-05-15T14:25:10.820Z,46.10
2023-05-15T14:27:39.013Z,46.20
2023-05-15T14:30:08.415Z,46.10
2023-05-15T14:32:36.540Z,46.40
2023-05-15T14:35:05.221Z,46.70
2023-05-15T14:37:34.720Z,46.70
2023-05-15T14:40:03.008Z,46.70
2023-05-15T14:42:31.192Z,46.90
2023-05-15T14:44:59.329Z,47.10
2023-05-15T14:47:29.985Z,47.20
2023-05-15T14:49:58.192Z,47.20
2023-05-15T14:52:27.033Z,47.40
2023-05-15T14:55:08.040Z,47.60
2023-05-15T14:57:37.684Z,47.40
2023-05-15T15:00:07.391Z,47.60
2023-05-15T15:02:35.818Z,47.50
2023-05-15T15:05:04.775Z,47.70
2023-05-15T15:07:53.026Z,48.00
2023-05-15T15:10:22.485Z,48.10
2023-05-15T15:12:52.939Z,48.20
2023-05-15T15:15:21.487Z,48.30
2023-05-15T15:17:49.653Z,48.50
2023-05-15T15:20:19.101Z,48.60
2023-05-15T15:22:47.511Z,48.80
2023-05-15T15:25:15.965Z,48.90
2023-05-15T15:27:46.262Z,48.70
2023-05-15T15:30:14.682Z,48.30
2023-05-15T15:32:44.541Z,48.30
2023-05-15T15:35:12.971Z,48.40
2023-05-15T15:37:41.080Z,48.40
2023-05-15T15:40:11.191Z,48.50
2023-05-15T15:42:39.331Z,48.70
2023-05-15T15:45:09.689Z,49.50
2023-05-15T15:47:37.954Z,48.90
2023-05-15T15:50:07.058Z,49.10
2023-05-15T15:52:35.213Z,49.20
2023-05-15T15:55:03.528Z,49.40
2023-05-15T15:57:31.858Z,49.60
2023-05-15T16:00:00.072Z,49.80
2023-05-15T16:02:29.740Z,50.00
2023-05-15T16:04:57.889Z,50.20
2023-05-15T16:07:26.052Z,50.20
2023-05-15T16:10:10.087Z,50.30
2023-05-15T16:12:42.436Z,50.50
2023-05-15T16:15:22.311Z,50.70
2023-05-15T16:17:57.396Z,50.80
2023-05-15T16:20:26.366Z,50.70
2023-05-15T16:22:55.297Z,50.80
2023-05-15T16:25:23.648Z,50.80
2023-05-15T16:27:51.758Z,50.80
2023-05-15T16:30:20.038Z,50.90
2023-05-15T16:32:48.601Z,51.00
2023-05-15T16:35:20.574Z,51.10
2023-05-15T16:37:48.707Z,51.20
2023-05-15T16:40:17.011Z,51.20
2023-05-15T16:42:45.094Z,51.20
2023-05-15T16:45:13.176Z,51.20
2023-05-15T16:47:41.444Z,51.40
2023-05-15T16:50:10.313Z,51.60
2023-05-15T16:52:45.370Z,51.60
2023-05-15T16:55:16.333Z,51.70
2023-05-15T16:57:45.292Z,51.70
2023-05-15T17:00:15.173Z,51.90
2023-05-15T17:02:43.754Z,52.00
2023-05-15T17:05:13.954Z,52.00
2023-05-15T17:07:44.496Z,52.00
2023-05-15T17:10:13.929Z,52.10
2023-05-15T17:12:42.454Z,52.20
2023-05-15T17:15:11.090Z,52.30
2023-05-15T17:17:39.246Z,52.40
2023-05-15T17:20:08.440Z,52.50
2023-05-15T17:22:36.664Z,52.50
2023-05-15T17:25:07.112Z,52.60
2023-05-15T17:27:39.703Z,52.60
2023-05-15T17:30:09.084Z,52.70
2023-05-15T17:32:37.282Z,52.70
2023-05-15T17:35:06.212Z,52.70
2023-05-15T17:37:34.299Z,52.90
2023-05-15T17:40:02.679Z,53.10
2023-05-15T17:42:32.129Z,53.30
2023-05-15T17:45:00.408Z,53.40
2023-05-15T17:47:28.699Z,53.60
2023-05-15T17:49:56.992Z,53.60
2023-05-15T17:52:25.053Z,53.80
2023-05-15T17:54:53.190Z,53.80
2023-05-15T17:57:21.270Z,53.90
2023-05-15T17:59:50.766Z,53.90
2023-05-15T18:02:18.855Z,54.10
2023-05-15T18:04:46.975Z,54.20
2023-05-15T18:07:15.137Z,54.30
2023-05-15T18:09:43.196Z,54.40
2023-05-15T18:12:14.342Z,54.40
2023-05-15T18:14:42.522Z,54.50
2023-05-15T18:17:11.950Z,54.60
2023-05-15T18:19:40.057Z,54.70
2023-05-15T18:22:08.185Z,54.90
2023-05-15T18:24:36.270Z,55.30
2023-05-15T18:27:04.515Z,55.60
2023-05-15T18:29:32.576Z,56.00
2023-05-15T18:32:00.783Z,56.20
2023-05-15T18:34:30.336Z,56.40
2023-05-15T18:36:58.421Z,56.60
2023-05-15T18:39:26.783Z,56.70
2023-05-15T18:41:55.296Z,56.80
2023-05-15T18:44:23.453Z,57.00
2023-05-15T18:46:51.776Z,57.10
2023-05-15T18:49:19.836Z,57.30
2023-05-15T18:51:49.280Z,57.30
2023-05-15T18:54:17.526Z,57.40
2023-05-15T18:56:45.623Z,57.40
2023-05-15T18:59:14.027Z,57.40
2023-05-15T19:01:42.150Z,57.80
2023-05-15T19:04:10.388Z,57.80
2023-05-15T19:06:40.814Z,58.10
2023-05-15T19:09:10.652Z,58.40
2023-05-15T19:11:38.838Z,58.60
2023-05-15T19:14:07.242Z,58.70
2023-05-15T19:16:35.388Z,59.00
2023-05-15T19:19:03.627Z,59.40
2023-05-15T19:21:32.413Z,59.60
2023-05-15T19:24:00.562Z,60.00
2023-05-15T19:26:30.402Z,60.00
2023-05-15T19:28:58.706Z,60.40
2023-05-15T19:31:31.316Z,60.40
2023-05-15T19:34:00.629Z,60.70
2023-05-15T19:36:28.811Z,60.60
2023-05-15T19:38:57.187Z,60.90
2023-05-15T19:41:25.337Z,61.10
2023-05-15T19:43:54.966Z,61.30
2023-05-15T19:46:23.665Z,61.60
2023-05-15T19:48:51.863Z,61.90
2023-05-15T19:51:20.361Z,62.20
2023-05-15T19:53:48.554Z,62.80
2023-05-15T19:56:17.641Z,63.70
2023-05-15T19:58:45.898Z,64.20
2023-05-15T20:01:15.892Z,64.60
2023-05-15T20:03:44.276Z,65.90
2023-05-15T20:06:14.002Z,65.90
2023-05-15T20:08:42.126Z,66.50
2023-05-15T20:11:10.405Z,66.60
2023-05-15T20:13:39.151Z,66.30
2023-05-15T20:16:10.459Z,66.90
2023-05-15T20:18:42.038Z,67.50
2023-05-15T20:21:10.549Z,68.60
2023-05-15T20:23:39.220Z,68.70
2023-05-15T20:26:07.291Z,69.40
2023-05-15T20:28:35.368Z,68.90
2023-05-15T20:31:03.514Z,69.00
2023-05-15T20:33:31.741Z,69.10
2023-05-15T20:36:02.259Z,69.00
2023-05-15T20:38:30.395Z,69.40
2023-05-15T20:40:58.481Z,70.00
2023-05-15T20:43:26.982Z,69.60
2023-05-15T20:45:55.205Z,70.10
2023-05-15T20:48:23.364Z,70.60
2023-05-15T20:50:53.781Z,71.20
2023-05-15T20:53:23.510Z,71.50
2023-05-15T20:55:51.672Z,71.70
2023-05-15T20:58:21.345Z,71.60
2023-05-15T21:00:49.747Z,71.80
2023-05-15T21:03:17.934Z,72.20
2023-05-15T21:05:46.237Z,72.60
2023-05-15T21:08:14.831Z,72.70
2023-05-15T21:10:45.382Z,73.20
2023-05-15T21:13:14.073Z,73.50
2023-05-15T21:15:42.341Z,73.40
2023-05-15T21:18:12.067Z,73.10
2023-05-15T21:20:41.762Z,73.40
2023-05-15T21:23:09.871Z,73.30
2023-05-15T21:25:38.338Z,73.20
2023-05-15T21:28:11.412Z,73.30
2023-05-15T21:30:39.592Z,73.80
2023-05-15T21:33:08.099Z,73.30
2023-05-15T21:35:36.449Z,73.50
2023-05-15T21:38:05.711Z,73.90
2023-05-15T21:40:34.513Z,74.00
2023-05-15T21:43:03.276Z,73.90
2023-05-15T21:45:33.215Z,74.00
2023-05-15T21:48:02.581Z,74.20
2023-05-15T21:50:31.067Z,74.20
2023-05-15T21:52:59.204Z,73.90
2023-05-15T21:55:27.318Z,73.80
2023-05-15T21:57:55.961Z,74.00
2023-05-15T22:00:24.745Z,74.20
2023-05-15T22:02:54.419Z,74.30
2023-05-15T22:05:22.700Z,74.80
2023-05-15T22:07:50.976Z,75.00
2023-05-15T22:10:19.154Z,75.50
2023-05-15T22:12:47.478Z,75.70
2023-05-15T22:15:16.698Z,76.00
2023-05-15T22:17:44.917Z,75.90
2023-05-15T22:20:15.528Z,75.90
2023-05-15T22:22:44.120Z,76.30
2023-05-15T22:25:12.288Z,76.20
2023-05-15T22:27:40.394Z,76.00
2023-05-15T22:30:09.775Z,75.60
2023-05-15T22:32:37.968Z,75.80
2023-05-15T22:35:06.944Z,76.00
2023-05-15T22:37:36.697Z,76.40
2023-05-15T22:40:07.495Z,76.90
2023-05-15T22:42:35.604Z,76.80
2023-05-15T22:45:03.959Z,77.10
2023-05-15T22:47:32.609Z,77.10
2023-05-15T22:50:00.870Z,77.00
2023-05-15T22:52:29.079Z,76.80
2023-05-15T22:54:58.509Z,76.80
2023-05-15T22:57:26.967Z,76.90
2023-05-15T22:59:55.080Z,76.50
2023-05-15T23:02:23.175Z,76.50
2023-05-15T23:04:51.289Z,76.60
2023-05-15T23:07:19.370Z,76.90
2023-05-15T23:09:47.620Z,77.00
2023-05-15T23:12:17.111Z,77.00
2023-05-15T23:14:45.179Z,77.20
2023-05-15T23:17:13.823Z,77.20
2023-05-15T23:19:42.011Z,76.90
2023-05-15T23:22:10.113Z,76.50
2023-05-15T23:24:38.328Z,76.40
2023-05-15T23:27:06.801Z,76.30
2023-05-15T23:29:36.281Z,76.60
2023-05-15T23:32:04.477Z,76.90
2023-05-15T23:34:32.560Z,77.00
2023-05-15T23:37:00.686Z,77.40
2023-05-15T23:39:28.754Z,77.80
2023-05-15T23:42:00.012Z,78.10
2023-05-15T23:44:28.286Z,78.80
2023-05-15T23:46:57.851Z,78.90
2023-05-15T23:49:26.057Z,78.90
2023-05-15T23:51:54.557Z,78.40
2023-05-15T23:54:22.665Z,78.10
2023-05-15T23:56:50.983Z,78.20
2023-05-15T23:59:19.152Z,78.50
